Time;durP1;ratioP1;P1;durP2;ratioP2;P2;SDS_P1;SDS_P2;PMS_P1;PMS_P2;Temp;Humidity;BMP_temperature;BMP_pressure;BME280_temperature;BME280_humidity;BME280_pressure;Samples;Min_cycle;Max_cycle;Signal;HPM_P1;HPM_P2
2022/11/24 00:00:20;;;;;;;;;;;7.70;99.90;;;;;;5052923;28;19916;-83
2022/11/24 00:02:45;;;;;;;;;;;7.70;99.90;;;;;;5052322;28;19917;-81
2022/11/24 00:05:11;;;;;;;;;;;7.70;99.90;;;;;;5052426;28;19995;-81
2022/11/24 00:07:36;;;;;;;;;;;7.80;99.90;;;;;;5052524;28;19935;-82
2022/11/24 00:10:02;;;;;;;;;;;7.90;99.90;;;;;;5052457;28;20392;-81
2022/11/24 00:12:28;;;;;;;;;;;7.90;99.90;;;;;;5053308;28;19963;-81
2022/11/24 00:14:53;;;;;;;;;;;7.90;99.90;;;;;;5052497;28;19908;-81
2022/11/24 00:17:19;;;;;;;;;;;8.00;99.90;;;;;;5052197;28;19974;-82
2022/11/24 00:19:44;;;;;;;;;;;7.90;99.90;;;;;;5052098;28;19912;-81
2022/11/24 00:22:10;;;;;;;;;;;8.00;99.90;;;;;;5052056;28;19913;-81
2022/11/24 00:24:35;;;;;;;;;;;8.00;99.90;;;;;;5052012;28;19916;-81
2022/11/24 00:27:00;;;;;;;;;;;8.00;99.90;;;;;;5053115;28;19913;-81
2022/11/24 00:29:26;;;;;;;;;;;8.00;99.90;;;;;;5053178;28;19913;-82
2022/11/24 00:31:51;;;;;;;;;;;7.90;99.90;;;;;;5051639;28;20433;-81
2022/11/24 00:34:17;;;;;;;;;;;7.90;99.90;;;;;;5051983;28;19908;-82
2022/11/24 00:36:42;;;;;;;;;;;7.90;99.90;;;;;;5051937;28;19910;-82
2022/11/24 00:39:12;;;;;;;;;;;7.90;99.90;;;;;;5051989;28;20362;-81
2022/11/24 00:41:38;;;;;;;;;;;8.00;99.90;;;;;;5051664;28;19909;-81
2022/11/24 00:44:03;;;;;;;;;;;8.00;99.90;;;;;;5052065;28;19909;-82
2022/11/24 00:46:29;;;;;;;;;;;8.00;99.90;;;;;;5051767;28;19941;-81
2022/11/24 00:48:55;;;;;;;;;;;8.00;99.90;;;;;;5052723;28;19913;-81
2022/11/24 00:51:22;;;;;;;;;;;8.00;99.90;;;;;;5051623;28;19963;-82
2022/11/24 00:53:48;;;;;;;;;;;8.00;99.90;;;;;;5051598;28;20393;-82
2022/11/24 00:56:13;;;;;;;;;;;8.00;99.90;;;;;;5051708;28;19917;-82
2022/11/24 00:58:39;;;;;;;;;;;8.00;99.90;;;;;;5051896;28;19935;-82
2022/11/24 01:01:06;;;;;;;;;;;7.90;99.90;;;;;;5052964;28;20310;-83
2022/11/24 01:03:32;;;;;;;;;;;7.90;99.90;;;;;;5051650;28;19913;-82
2022/11/24 01:06:08;;;;;;;;;;;7.90;99.90;;;;;;5051774;28;20386;-82
2022/11/24 01:08:35;;;;;;;;;;;7.90;99.90;;;;;;5051381;28;19909;-82
2022/11/24 01:11:13;;;;;;;;;;;7.90;99.90;;;;;;5051319;28;19916;-82
2022/11/24 01:13:38;;;;;;;;;;;7.90;99.90;;;;;;5051583;28;19958;-81
2022/11/24 01:16:04;;;;;;;;;;;7.90;99.90;;;;;;5051373;28;20349;-82
2022/11/24 01:18:30;;;;;;;;;;;8.00;99.90;;;;;;5051389;28;19932;-82
2022/11/24 01:20:56;;;;;;;;;;;8.10;99.90;;;;;;5051212;28;19940;-83
2022/11/24 01:23:21;;;;;;;;;;;8.20;99.90;;;;;;5051146;28;20004;-82
2022/11/24 01:25:47;;;;;;;;;;;8.20;99.90;;;;;;5051186;28;19909;-81
2022/11/24 01:28:12;;;;;;;;;;;8.20;99.90;;;;;;5051254;28;20436;-81
2022/11/24 01:30:38;;;;;;;;;;;8.30;99.90;;;;;;5051243;28;19913;-82
2022/11/24 01:33:04;;;;;;;;;;;8.20;99.90;;;;;;5050885;28;19916;-81
2022/11/24 01:35:29;;;;;;;;;;;8.20;99.90;;;;;;5052801;28;19913;-82
2022/11/24 01:37:54;;;;;;;;;;;8.10;99.90;;;;;;5052558;28;19909;-82
2022/11/24 01:40:20;;;;;;;;;;;8.00;99.90;;;;;;5055126;28;19909;-81
2022/11/24 01:42:47;;;;;;;;;;;8.00;99.90;;;;;;5056266;28;19909;-81
2022/11/24 01:45:32;;;;;;;;;;;7.90;99.90;;;;;;5056498;28;20007;-81
2022/11/24 01:47:58;;;;;;;;;;;7.90;99.90;;;;;;5056536;28;19909;-82
2022/11/24 01:50:24;;;;;;;;;;;7.80;99.90;;;;;;5055148;28;20412;-82
2022/11/24 01:52:51;;;;;;;;;;;7.80;99.90;;;;;;5054887;28;20310;-82
2022/11/24 01:55:20;;;;;;;;;;;7.80;99.90;;;;;;5055073;28;19916;-83
2022/11/24 01:57:52;;;;;;;;;;;7.90;99.90;;;;;;5055128;28;19916;-82
2022/11/24 02:00:18;;;;;;;;;;;7.90;99.90;;;;;;5055229;28;19910;-82
2022/11/24 02:02:44;;;;;;;;;;;8.10;99.90;;;;;;5054808;28;19915;-82
2022/11/24 02:05:16;;;;;;;;;;;8.20;99.90;;;;;;5056186;28;19948;-81
2022/11/24 02:07:42;;;;;;;;;;;8.30;99.90;;;;;;5054829;28;19913;-82
2022/11/24 02:10:15;;;;;;;;;;;8.30;99.90;;;;;;5054978;28;20353;-82
2022/11/24 02:12:44;;;;;;;;;;;8.40;99.90;;;;;;5054510;28;19916;-82
2022/11/24 02:15:11;;;;;;;;;;;8.50;99.90;;;;;;5054622;28;19913;-82
2022/11/24 02:17:36;;;;;;;;;;;8.50;99.90;;;;;;5055810;28;19916;-82
2022/11/24 02:20:07;;;;;;;;;;;8.50;99.90;;;;;;5054567;28;20378;-82
2022/11/24 02:22:32;;;;;;;;;;;8.50;99.90;;;;;;5055488;28;20334;-82
2022/11/24 02:25:21;;;;;;;;;;;8.50;99.90;;;;;;5054414;28;19916;-82
2022/11/24 02:27:46;;;;;;;;;;;8.50;99.90;;;;;;5055669;28;20070;-81
2022/11/24 02:30:12;;;;;;;;;;;8.50;99.90;;;;;;5055525;28;19963;-82
2022/11/24 02:32:39;;;;;;;;;;;8.50;99.90;;;;;;5054045;28;19912;-82
2022/11/24 02:35:05;;;;;;;;;;;8.50;99.90;;;;;;5054251;28;19909;-81
2022/11/24 02:37:30;;;;;;;;;;;8.50;99.90;;;;;;5055274;28;19909;-83
2022/11/24 02:39:56;;;;;;;;;;;8.50;99.90;;;;;;5055364;28;19908;-82
2022/11/24 02:42:22;;;;;;;;;;;8.40;99.90;;;;;;5053905;28;19944;-82
2022/11/24 02:44:49;;;;;;;;;;;8.30;99.90;;;;;;5054216;28;19956;-82
2022/11/24 02:47:15;;;;;;;;;;;8.30;99.90;;;;;;5054143;28;19908;-82
2022/11/24 02:49:41;;;;;;;;;;;8.20;99.90;;;;;;5053842;28;20521;-81
2022/11/24 02:52:07;;;;;;;;;;;8.20;99.90;;;;;;5053589;28;19916;-82
2022/11/24 02:54:32;;;;;;;;;;;8.20;99.90;;;;;;5053932;28;19909;-82
2022/11/24 02:56:58;;;;;;;;;;;8.10;99.90;;;;;;5053650;28;19917;-81
2022/11/24 02:59:23;;;;;;;;;;;8.10;99.90;;;;;;5055119;28;20321;-81
2022/11/24 03:01:49;;;;;;;;;;;8.10;99.90;;;;;;5053506;28;19915;-82
2022/11/24 03:04:14;;;;;;;;;;;8.00;99.90;;;;;;5053610;28;20378;-81
2022/11/24 03:06:41;;;;;;;;;;;8.10;99.90;;;;;;5053694;28;20011;-81
2022/11/24 03:09:06;;;;;;;;;;;8.10;99.90;;;;;;5054918;28;19913;-81
2022/11/24 03:11:32;;;;;;;;;;;8.10;99.90;;;;;;5053465;28;19916;-82
2022/11/24 03:13:57;;;;;;;;;;;8.10;99.90;;;;;;5053604;28;19909;-82
2022/11/24 03:16:23;;;;;;;;;;;8.10;99.90;;;;;;5053563;28;19908;-82
2022/11/24 03:18:51;;;;;;;;;;;8.10;99.90;;;;;;5053545;28;19916;-82
2022/11/24 03:21:17;;;;;;;;;;;8.10;99.90;;;;;;5053312;28;19955;-82
2022/11/24 03:23:43;;;;;;;;;;;8.20;99.90;;;;;;5053423;28;19912;-82
2022/11/24 03:26:09;;;;;;;;;;;8.20;99.90;;;;;;5053358;28;19909;-82
2022/11/24 03:28:34;;;;;;;;;;;8.30;99.90;;;;;;5053449;28;19937;-82
2022/11/24 03:31:01;;;;;;;;;;;8.30;99.90;;;;;;5053237;28;20318;-82
2022/11/24 03:33:26;;;;;;;;;;;8.40;99.90;;;;;;5053466;28;19909;-82
2022/11/24 03:35:52;;;;;;;;;;;8.40;99.90;;;;;;5053421;28;20412;-81
2022/11/24 03:38:17;;;;;;;;;;;8.50;99.90;;;;;;5053268;28;19964;-83
2022/11/24 03:40:43;;;;;;;;;;;8.50;99.90;;;;;;5053254;28;20320;-81
2022/11/24 03:43:08;;;;;;;;;;;8.50;99.90;;;;;;5054370;28;19935;-82
2022/11/24 03:45:33;;;;;;;;;;;8.50;99.90;;;;;;5054246;28;19908;-82
2022/11/24 03:47:59;;;;;;;;;;;8.60;99.90;;;;;;5053191;28;19909;-82
2022/11/24 03:50:24;;;;;;;;;;;8.60;99.90;;;;;;5052988;28;19920;-81
2022/11/24 03:52:50;;;;;;;;;;;8.60;99.90;;;;;;5053835;28;20007;-82
2022/11/24 03:55:15;;;;;;;;;;;8.60;99.90;;;;;;5052714;28;20313;-81
2022/11/24 03:57:41;;;;;;;;;;;8.60;99.90;;;;;;5083581;22;20011;-84
2022/11/24 04:00:07;;;;;;;;;;;8.70;99.90;;;;;;5089347;28;19912;-84
2022/11/24 04:02:32;;;;;;;;;;;8.70;99.90;;;;;;5088933;28;19915;-84
2022/11/24 04:04:58;;;;;;;;;;;8.80;99.90;;;;;;5089814;28;19909;-84
2022/11/24 04:07:23;;;;;;;;;;;8.80;99.90;;;;;;5089659;28;19908;-84
2022/11/24 04:09:49;;;;;;;;;;;8.90;99.90;;;;;;5072577;28;19916;-84
2022/11/24 04:14:58;;;;;;;;;;;8.90;99.90;;;;;;5074278;28;19915;-84
2022/11/24 04:17:24;;;;;;;;;;;8.90;99.90;;;;;;5072484;28;19912;-84
2022/11/24 04:19:49;;;;;;;;;;;9.00;99.90;;;;;;5072379;28;20400;-84
2022/11/24 04:22:15;;;;;;;;;;;9.00;99.90;;;;;;5073549;28;19908;-84
2022/11/24 04:24:40;;;;;;;;;;;9.00;99.90;;;;;;5072412;28;20034;-84
2022/11/24 04:27:05;;;;;;;;;;;9.00;99.90;;;;;;5072324;28;19909;-84
2022/11/24 04:29:31;;;;;;;;;;;9.00;99.90;;;;;;5073526;28;19952;-84
2022/11/24 04:31:56;;;;;;;;;;;9.10;99.90;;;;;;5071959;28;19909;-84
2022/11/24 04:34:22;;;;;;;;;;;9.10;99.90;;;;;;5072212;28;19982;-84
2022/11/24 04:36:47;;;;;;;;;;;9.10;99.90;;;;;;5073440;28;19908;-84
2022/11/24 04:39:13;;;;;;;;;;;9.10;99.90;;;;;;5072095;28;19912;-84
2022/11/24 04:41:38;;;;;;;;;;;9.10;99.90;;;;;;5073278;28;19914;-83
2022/11/24 04:44:03;;;;;;;;;;;9.10;99.90;;;;;;5072362;28;19917;-84
2022/11/24 04:46:29;;;;;;;;;;;9.20;99.90;;;;;;5073347;28;19909;-84
2022/11/24 04:48:54;;;;;;;;;;;9.20;99.90;;;;;;5071998;28;19923;-84
2022/11/24 04:51:20;;;;;;;;;;;9.30;99.90;;;;;;5073096;28;19986;-84
2022/11/24 04:53:47;;;;;;;;;;;9.30;99.90;;;;;;5071833;28;19961;-84
2022/11/24 04:56:12;;;;;;;;;;;9.30;99.90;;;;;;5071840;28;20007;-84
2022/11/24 04:58:38;;;;;;;;;;;9.20;99.90;;;;;;5071771;28;20011;-84
2022/11/24 05:01:07;;;;;;;;;;;9.30;99.90;;;;;;5072973;28;19908;-84
2022/11/24 05:03:33;;;;;;;;;;;9.30;99.90;;;;;;5073360;28;20353;-84
2022/11/24 05:05:58;;;;;;;;;;;9.20;99.90;;;;;;5071499;28;19915;-84
2022/11/24 05:08:24;;;;;;;;;;;9.20;99.90;;;;;;5072992;28;19920;-84
2022/11/24 05:10:49;;;;;;;;;;;9.20;99.90;;;;;;5072536;28;19920;-84
2022/11/24 05:13:15;;;;;;;;;;;9.20;99.90;;;;;;5072796;28;19909;-84
2022/11/24 05:15:40;;;;;;;;;;;9.20;99.90;;;;;;5071983;28;19915;-84
2022/11/24 05:18:06;;;;;;;;;;;9.20;99.90;;;;;;5072829;28;19908;-84
2022/11/24 05:20:32;;;;;;;;;;;9.20;99.90;;;;;;5071468;28;19908;-84
2022/11/24 05:23:01;;;;;;;;;;;9.20;99.90;;;;;;5071196;28;19958;-84
2022/11/24 05:25:27;;;;;;;;;;;9.20;99.90;;;;;;5071385;28;19908;-84
2022/11/24 05:27:52;;;;;;;;;;;9.10;99.90;;;;;;5072643;28;19908;-84
2022/11/24 05:30:18;;;;;;;;;;;9.10;99.90;;;;;;5071321;28;19913;-84
2022/11/24 05:32:44;;;;;;;;;;;9.00;99.90;;;;;;5071122;28;20414;-85
2022/11/24 05:35:09;;;;;;;;;;;9.00;99.90;;;;;;5072602;28;20549;-84
2022/11/24 05:37:35;;;;;;;;;;;9.00;99.90;;;;;;5071071;28;19908;-84
2022/11/24 05:40:01;;;;;;;;;;;9.00;99.90;;;;;;5071302;28;20362;-84
2022/11/24 05:42:42;;;;;;;;;;;9.00;99.90;;;;;;5071241;28;20385;-84
2022/11/24 05:45:10;;;;;;;;;;;9.00;99.90;;;;;;5071654;28;19968;-84
2022/11/24 05:47:36;;;;;;;;;;;9.00;99.90;;;;;;5072659;28;19916;-84
2022/11/24 05:50:01;;;;;;;;;;;9.00;99.90;;;;;;5071174;28;19913;-84
2022/11/24 05:52:26;;;;;;;;;;;9.10;99.90;;;;;;5072538;28;19976;-83
2022/11/24 05:54:52;;;;;;;;;;;9.20;99.90;;;;;;5072616;28;19908;-83
2022/11/24 05:57:18;;;;;;;;;;;9.20;99.90;;;;;;5072577;28;19924;-83
2022/11/24 05:59:43;;;;;;;;;;;9.20;99.90;;;;;;5071348;28;19913;-84
2022/11/24 06:02:09;;;;;;;;;;;9.20;99.90;;;;;;5071057;28;20343;-84
2022/11/24 06:04:35;;;;;;;;;;;9.30;99.90;;;;;;5071327;28;19931;-84
2022/11/24 06:07:01;;;;;;;;;;;9.30;99.90;;;;;;5071122;28;19908;-83
2022/11/24 06:09:26;;;;;;;;;;;9.30;99.90;;;;;;5072572;28;19912;-83
2022/11/24 06:11:52;;;;;;;;;;;9.40;99.90;;;;;;5071124;28;20415;-84
2022/11/24 06:14:17;;;;;;;;;;;9.40;99.90;;;;;;5071111;28;19913;-83
2022/11/24 06:16:43;;;;;;;;;;;9.50;99.90;;;;;;5067463;28;19917;-83
2022/11/24 06:19:09;;;;;;;;;;;9.40;99.90;;;;;;5058895;28;19909;-83
2022/11/24 06:21:34;;;;;;;;;;;9.40;99.90;;;;;;5052061;28;20366;-83
2022/11/24 06:24:01;;;;;;;;;;;9.30;99.90;;;;;;5051937;28;19916;-84
2022/11/24 06:26:27;;;;;;;;;;;9.30;99.90;;;;;;5055924;28;19909;-83
2022/11/24 06:28:52;;;;;;;;;;;9.30;99.90;;;;;;5054733;28;20035;-84
2022/11/24 06:31:18;;;;;;;;;;;9.30;99.90;;;;;;5055845;28;19909;-84
2022/11/24 06:33:43;;;;;;;;;;;9.30;99.90;;;;;;5054664;28;20000;-84
2022/11/24 06:36:11;;;;;;;;;;;9.20;99.90;;;;;;5054696;28;19916;-84
2022/11/24 06:38:37;;;;;;;;;;;9.20;99.90;;;;;;5055791;28;19909;-84
2022/11/24 06:41:05;;;;;;;;;;;9.20;99.90;;;;;;5053721;28;19915;-83
2022/11/24 06:43:30;;;;;;;;;;;9.20;99.90;;;;;;5054399;28;19908;-83
2022/11/24 06:45:56;;;;;;;;;;;9.20;99.90;;;;;;5054757;28;19915;-84
2022/11/24 06:48:22;;;;;;;;;;;9.20;99.90;;;;;;5054100;28;19909;-84
2022/11/24 06:50:47;;;;;;;;;;;9.10;99.90;;;;;;5054095;28;19913;-84
2022/11/24 06:53:14;;;;;;;;;;;9.10;99.90;;;;;;5053842;28;19909;-83
2022/11/24 06:55:39;;;;;;;;;;;9.10;99.90;;;;;;5054095;28;19916;-83
2022/11/24 06:58:05;;;;;;;;;;;9.10;99.90;;;;;;5055679;28;19917;-83
2022/11/24 07:00:33;;;;;;;;;;;9.00;99.90;;;;;;5054286;28;20357;-83
2022/11/24 07:02:59;;;;;;;;;;;9.00;99.90;;;;;;5053876;28;20282;-83
2022/11/24 07:05:25;;;;;;;;;;;8.90;99.90;;;;;;5053899;28;19913;-83
2022/11/24 07:07:50;;;;;;;;;;;8.90;99.90;;;;;;5053791;28;19963;-84
2022/11/24 07:10:16;;;;;;;;;;;8.80;99.90;;;;;;5055082;28;20344;-83
2022/11/24 07:12:41;;;;;;;;;;;8.80;99.90;;;;;;5055182;28;20282;-83
2022/11/24 07:15:07;;;;;;;;;;;8.80;99.90;;;;;;5053778;28;19959;-83
2022/11/24 07:17:39;;;;;;;;;;;8.70;99.90;;;;;;5053512;28;19908;-83
2022/11/24 07:20:05;;;;;;;;;;;8.60;99.90;;;;;;5054133;28;19920;-83
2022/11/24 07:22:30;;;;;;;;;;;8.60;99.90;;;;;;5054829;28;20290;-83
2022/11/24 07:24:56;;;;;;;;;;;8.60;99.90;;;;;;5053746;28;19915;-83
2022/11/24 07:27:21;;;;;;;;;;;8.60;99.90;;;;;;5053730;28;20332;-83
2022/11/24 07:29:47;;;;;;;;;;;8.60;99.90;;;;;;5054905;28;19913;-82
2022/11/24 07:32:12;;;;;;;;;;;8.60;99.90;;;;;;5053413;28;19955;-83
2022/11/24 07:34:37;;;;;;;;;;;8.60;99.90;;;;;;5053333;28;19919;-83
2022/11/24 07:37:03;;;;;;;;;;;8.70;99.90;;;;;;5052694;28;19951;-83
2022/11/24 07:39:28;;;;;;;;;;;8.80;99.90;;;;;;5054876;28;19909;-83
2022/11/24 07:41:54;;;;;;;;;;;9.00;99.90;;;;;;5070330;28;19923;-83
2022/11/24 07:44:19;;;;;;;;;;;9.00;99.90;;;;;;5073001;28;19908;-83
2022/11/24 07:46:45;;;;;;;;;;;9.00;99.90;;;;;;5074406;28;20328;-83
2022/11/24 07:49:11;;;;;;;;;;;9.00;99.90;;;;;;5073555;28;19913;-83
2022/11/24 07:51:36;;;;;;;;;;;9.10;99.90;;;;;;5074145;28;19909;-83
2022/11/24 07:54:02;;;;;;;;;;;9.10;99.90;;;;;;5074582;28;19908;-83
2022/11/24 07:56:27;;;;;;;;;;;9.10;99.90;;;;;;5073129;28;19916;-83
2022/11/24 07:58:52;;;;;;;;;;;9.10;99.90;;;;;;5090002;28;19969;-83
2022/11/24 08:01:18;;;;;;;;;;;9.20;99.90;;;;;;5072740;28;19999;-84
2022/11/24 08:03:44;;;;;;;;;;;9.30;99.90;;;;;;5072871;28;19950;-83
2022/11/24 08:06:10;;;;;;;;;;;9.40;99.90;;;;;;5072891;28;19909;-84
2022/11/24 08:08:36;;;;;;;;;;;9.50;99.90;;;;;;5074405;28;20002;-84
2022/11/24 08:11:04;;;;;;;;;;;9.50;99.90;;;;;;5071923;28;21423;-83
2022/11/24 08:13:30;;;;;;;;;;;9.50;99.90;;;;;;5073116;28;19913;-83
2022/11/24 08:15:55;;;;;;;;;;;9.50;99.90;;;;;;5072796;28;19962;-83
2022/11/24 08:18:23;;;;;;;;;;;9.60;99.90;;;;;;5089674;28;20003;-82
2022/11/24 08:20:48;;;;;;;;;;;9.60;99.90;;;;;;5072682;28;20343;-83
2022/11/24 08:23:14;;;;;;;;;;;9.70;99.90;;;;;;5072552;28;19967;-83
2022/11/24 08:25:39;;;;;;;;;;;9.60;99.90;;;;;;5072523;28;20336;-83
2022/11/24 08:28:05;;;;;;;;;;;9.60;99.90;;;;;;5072584;28;19959;-83
2022/11/24 08:30:30;;;;;;;;;;;9.70;99.90;;;;;;5089431;28;19913;-83
2022/11/24 08:32:59;;;;;;;;;;;9.80;99.90;;;;;;5072245;28;19954;-83
2022/11/24 08:35:25;;;;;;;;;;;10.00;99.90;;;;;;5073853;28;19909;-83
2022/11/24 08:37:51;;;;;;;;;;;10.10;99.90;;;;;;5088961;28;19961;-83
2022/11/24 08:40:17;;;;;;;;;;;10.10;99.90;;;;;;5073751;28;19909;-83
2022/11/24 08:42:42;;;;;;;;;;;10.20;99.90;;;;;;5072022;28;20003;-83
2022/11/24 08:45:08;;;;;;;;;;;10.30;99.90;;;;;;5073235;28;19931;-84
2022/11/24 08:47:34;;;;;;;;;;;10.50;99.90;;;;;;5071873;28;20384;-82
2022/11/24 08:50:00;;;;;;;;;;;10.60;99.90;;;;;;5089126;28;19912;-84
2022/11/24 08:52:25;;;;;;;;;;;10.50;99.90;;;;;;5072277;28;19908;-84
2022/11/24 08:54:51;;;;;;;;;;;10.50;99.90;;;;;;5073830;28;20366;-84
2022/11/24 08:57:16;;;;;;;;;;;10.50;99.90;;;;;;5088829;28;19916;-83
2022/11/24 08:59:42;;;;;;;;;;;10.50;99.90;;;;;;5073313;28;19909;-83
2022/11/24 09:02:11;;;;;;;;;;;10.60;99.90;;;;;;5089224;28;19909;-84
2022/11/24 09:04:37;;;;;;;;;;;10.60;99.90;;;;;;5072153;28;20392;-83
2022/11/24 09:07:02;;;;;;;;;;;10.60;99.90;;;;;;5072121;28;19908;-84
2022/11/24 09:09:28;;;;;;;;;;;10.70;99.90;;;;;;5073116;28;19919;-83
2022/11/24 09:11:53;;;;;;;;;;;10.80;99.90;;;;;;5070794;28;19912;-84
2022/11/24 09:14:19;;;;;;;;;;;10.80;99.90;;;;;;5073644;28;19908;-84
2022/11/24 09:16:44;;;;;;;;;;;10.80;99.90;;;;;;5073007;28;20285;-83
2022/11/24 09:19:10;;;;;;;;;;;10.80;99.90;;;;;;5072065;28;19962;-84
2022/11/24 09:21:38;;;;;;;;;;;10.80;99.90;;;;;;5071377;28;19915;-83
2022/11/24 09:24:07;;;;;;;;;;;10.80;99.90;;;;;;5072033;28;20336;-83
2022/11/24 09:26:33;;;;;;;;;;;10.90;99.90;;;;;;5071077;28;19909;-82
2022/11/24 09:29:00;;;;;;;;;;;10.80;99.90;;;;;;5071579;28;19908;-83
2022/11/24 09:31:27;;;;;;;;;;;10.90;99.90;;;;;;5071241;28;19909;-83
2022/11/24 09:33:52;;;;;;;;;;;10.90;99.90;;;;;;5073283;28;20442;-83
2022/11/24 09:36:18;;;;;;;;;;;11.00;99.90;;;;;;5071350;28;19909;-83
2022/11/24 09:38:44;;;;;;;;;;;11.10;99.90;;;;;;5071341;28;19912;-85
2022/11/24 09:41:09;;;;;;;;;;;11.10;99.90;;;;;;5071561;28;19956;-83
2022/11/24 09:43:39;;;;;;;;;;;11.20;99.90;;;;;;5071229;28;19909;-84
2022/11/24 09:46:05;;;;;;;;;;;11.30;99.90;;;;;;5071152;28;19909;-83
2022/11/24 09:48:33;;;;;;;;;;;11.40;99.90;;;;;;5071220;28;19909;-85
2022/11/24 09:51:01;;;;;;;;;;;11.40;99.90;;;;;;5070351;28;19912;-84
2022/11/24 09:53:29;;;;;;;;;;;11.50;99.90;;;;;;5071058;28;20354;-84
2022/11/24 09:55:57;;;;;;;;;;;11.50;99.90;;;;;;5072617;28;19920;-84
2022/11/24 09:58:41;;;;;;;;;;;11.60;99.90;;;;;;5072901;28;19913;-84
2022/11/24 10:01:17;;;;;;;;;;;11.60;99.90;;;;;;5075897;28;19930;-84
2022/11/24 10:03:45;;;;;;;;;;;11.80;99.90;;;;;;5074420;28;19935;-84
2022/11/24 10:06:16;;;;;;;;;;;11.70;99.90;;;;;;5076472;28;20313;-83
2022/11/24 10:08:45;;;;;;;;;;;11.80;99.90;;;;;;5075041;28;19923;-83
2022/11/24 10:11:12;;;;;;;;;;;11.80;99.90;;;;;;5074479;28;19962;-84
2022/11/24 10:13:53;;;;;;;;;;;11.90;99.90;;;;;;5074933;28;19973;-84
2022/11/24 10:16:31;;;;;;;;;;;11.90;99.90;;;;;;5075286;28;20001;-83
2022/11/24 10:19:13;;;;;;;;;;;12.20;99.90;;;;;;5074599;28;19995;-83
2022/11/24 10:21:38;;;;;;;;;;;12.50;99.90;;;;;;5074279;28;19915;-82
2022/11/24 10:24:04;;;;;;;;;;;12.60;99.90;;;;;;5074616;28;19913;-83
2022/11/24 10:26:41;;;;;;;;;;;12.60;99.90;;;;;;5071656;28;19913;-82
2022/11/24 10:29:18;;;;;;;;;;;12.70;99.90;;;;;;5083772;28;19918;-83
2022/11/24 10:31:44;;;;;;;;;;;12.80;99.90;;;;;;5076449;28;20370;-82
2022/11/24 10:34:15;;;;;;;;;;;13.00;99.90;;;;;;5075219;28;19908;-83
2022/11/24 10:36:59;;;;;;;;;;;13.30;99.90;;;;;;5075509;28;19913;-85
2022/11/24 10:39:30;;;;;;;;;;;13.50;99.90;;;;;;5076072;28;19944;-83
2022/11/24 10:42:32;;;;;;;;;;;13.50;99.90;;;;;;5074750;28;20384;-84
2022/11/24 10:45:16;;;;;;;;;;;13.60;99.90;;;;;;5036200;28;19908;-84
2022/11/24 10:47:42;;;;;;;;;;;13.70;99.90;;;;;;5088437;28;19916;-84
2022/11/24 10:50:08;;;;;;;;;;;13.90;99.90;;;;;;5074412;28;20267;-84
2022/11/24 10:52:39;;;;;;;;;;;13.90;99.90;;;;;;5073942;28;19908;-83
2022/11/24 10:55:05;;;;;;;;;;;13.90;99.90;;;;;;5075427;28;19939;-84
2022/11/24 10:57:34;;;;;;;;;;;13.80;99.90;;;;;;5075405;28;19916;-84
2022/11/24 11:00:00;;;;;;;;;;;13.80;99.90;;;;;;5075536;28;19908;-84
2022/11/24 11:02:36;;;;;;;;;;;14.40;99.90;;;;;;5081600;28;19908;-84
2022/11/24 11:05:21;;;;;;;;;;;15.10;99.90;;;;;;5073584;28;20479;-83
2022/11/24 11:07:46;;;;;;;;;;;15.50;99.90;;;;;;5073724;28;19935;-85
2022/11/24 11:10:20;;;;;;;;;;;15.20;99.90;;;;;;5074953;28;19914;-84
2022/11/24 11:12:45;;;;;;;;;;;15.10;99.90;;;;;;5073364;28;19958;-83
2022/11/24 11:15:30;;;;;;;;;;;14.80;99.90;;;;;;5075047;28;20470;-86
2022/11/24 11:17:59;;;;;;;;;;;14.80;99.90;;;;;;5074692;28;20415;-85
2022/11/24 11:20:31;;;;;;;;;;;15.80;99.90;;;;;;5074716;28;19946;-84
2022/11/24 11:22:59;;;;;;;;;;;17.10;99.90;;;;;;5073286;28;20003;-84
2022/11/24 11:25:34;;;;;;;;;;;17.90;99.90;;;;;;5077416;28;19904;-83
2022/11/24 11:28:15;;;;;;;;;;;18.70;99.90;;;;;;5092651;28;19920;-84
2022/11/24 11:30:53;;;;;;;;;;;20.40;99.90;;;;;;5091882;28;19912;-84
2022/11/24 11:33:23;;;;;;;;;;;22.20;99.90;;;;;;5090174;28;19908;-82
2022/11/24 11:35:49;;;;;;;;;;;23.20;99.90;;;;;;5089212;28;19909;-84
2022/11/24 11:38:14;;;;;;;;;;;24.20;96.90;;;;;;5089926;28;19980;-82
2022/11/24 11:40:41;;;;;;;;;;;24.90;93.20;;;;;;5090863;28;19905;-82
2022/11/24 11:43:13;;;;;;;;;;;25.60;90.80;;;;;;5089097;28;19935;-82
2022/11/24 11:45:45;;;;;;;;;;;25.50;84.80;;;;;;5091014;28;19908;-83
2022/11/24 11:48:14;;;;;;;;;;;26.20;84.70;;;;;;5089867;28;19924;-83
2022/11/24 11:50:44;;;;;;;;;;;25.80;81.50;;;;;;5089919;28;19964;-83
2022/11/24 11:53:16;;;;;;;;;;;25.60;78.90;;;;;;5088114;28;19914;-83
2022/11/24 11:56:01;;;;;;;;;;;24.40;76.40;;;;;;5088210;28;19908;-82
2022/11/24 11:58:45;;;;;;;;;;;23.90;76.20;;;;;;5090848;28;19926;-83
2022/11/24 12:01:18;;;;;;;;;;;23.90;80.60;;;;;;5090548;28;19920;-83
2022/11/24 12:04:04;;;;;;;;;;;23.90;82.10;;;;;;5084830;28;19970;-84
2022/11/24 12:06:40;;;;;;;;;;;24.70;77.50;;;;;;5084435;28;19909;-85
2022/11/24 12:09:17;;;;;;;;;;;24.30;80.50;;;;;;5078381;28;19909;-85
2022/11/24 12:11:48;;;;;;;;;;;24.60;76.80;;;;;;5077938;28;19914;-85
2022/11/24 12:14:16;;;;;;;;;;;24.40;78.50;;;;;;5079784;28;19909;-84
2022/11/24 12:16:51;;;;;;;;;;;25.00;77.50;;;;;;5076862;28;19915;-84
2022/11/24 12:19:35;;;;;;;;;;;25.60;72.00;;;;;;5076068;28;20266;-85
2022/11/24 12:22:06;;;;;;;;;;;25.70;71.70;;;;;;5076009;28;19909;-85
2022/11/24 12:24:49;;;;;;;;;;;26.00;69.50;;;;;;5076329;28;20309;-84
2022/11/24 12:27:15;;;;;;;;;;;25.80;68.40;;;;;;5077547;28;19909;-84
2022/11/24 12:29:59;;;;;;;;;;;24.60;69.70;;;;;;5077043;28;19915;-84
2022/11/24 12:32:45;;;;;;;;;;;23.00;70.80;;;;;;5076595;28;20003;-85
2022/11/24 12:35:30;;;;;;;;;;;22.10;77.30;;;;;;5078370;28;19968;-84
2022/11/24 12:38:01;;;;;;;;;;;22.60;81.30;;;;;;5076390;28;20362;-84
2022/11/24 12:40:27;;;;;;;;;;;24.00;79.80;;;;;;5077073;28;19912;-84
2022/11/24 12:43:11;;;;;;;;;;;24.80;74.00;;;;;;5076376;28;19908;-84
2022/11/24 12:45:56;;;;;;;;;;;25.30;75.10;;;;;;5077902;28;19908;-84
2022/11/24 12:48:21;;;;;;;;;;;25.80;68.10;;;;;;5083869;28;19915;-82
2022/11/24 12:50:47;;;;;;;;;;;26.10;69.40;;;;;;5073283;28;20273;-83
2022/11/24 12:53:20;;;;;;;;;;;26.20;67.40;;;;;;5071469;28;19920;-82
2022/11/24 12:55:46;;;;;;;;;;;26.70;65.00;;;;;;5071491;28;20309;-83
2022/11/24 12:58:15;;;;;;;;;;;26.20;61.70;;;;;;5071674;28;19913;-83
2022/11/24 13:00:46;;;;;;;;;;;25.70;62.10;;;;;;5071925;28;19916;-83
2022/11/24 13:03:28;;;;;;;;;;;25.20;63.60;;;;;;5071814;28;19943;-83
2022/11/24 13:06:00;;;;;;;;;;;25.10;64.60;;;;;;5073218;28;19919;-84
2022/11/24 13:08:26;;;;;;;;;;;24.40;65.40;;;;;;5073210;28;19915;-83
2022/11/24 13:10:51;;;;;;;;;;;23.70;65.20;;;;;;5071494;28;19912;-84
2022/11/24 13:13:17;;;;;;;;;;;22.50;67.90;;;;;;5071949;28;19908;-84
2022/11/24 13:15:52;;;;;;;;;;;21.40;70.80;;;;;;5072271;28;20011;-84
2022/11/24 13:18:36;;;;;;;;;;;21.40;75.60;;;;;;5072209;28;19931;-84
2022/11/24 13:21:01;;;;;;;;;;;21.10;75.70;;;;;;5071937;28;20373;-84
2022/11/24 13:23:27;;;;;;;;;;;21.40;78.40;;;;;;5088857;28;19915;-84
2022/11/24 13:26:13;;;;;;;;;;;21.60;78.00;;;;;;5071764;28;19970;-84
2022/11/24 13:29:14;;;;;;;;;;;20.90;77.00;;;;;;5071750;28;19908;-84
2022/11/24 13:31:40;;;;;;;;;;;19.70;80.90;;;;;;5030101;28;20008;-83
2022/11/24 13:34:25;;;;;;;;;;;18.80;87.50;;;;;;5076587;28;19916;-84
2022/11/24 13:36:51;;;;;;;;;;;18.10;91.10;;;;;;5075724;28;20003;-84
2022/11/24 13:39:18;;;;;;;;;;;17.50;93.50;;;;;;5075246;28;19917;-83
2022/11/24 13:41:44;;;;;;;;;;;16.90;96.30;;;;;;5084789;28;19950;-84
2022/11/24 13:44:13;;;;;;;;;;;16.50;99.90;;;;;;5075467;28;19908;-82
2022/11/24 13:47:01;;;;;;;;;;;16.10;99.90;;;;;;5075266;28;19952;-83
2022/11/24 13:49:39;;;;;;;;;;;15.90;99.90;;;;;;5075336;28;19923;-84
2022/11/24 13:52:23;;;;;;;;;;;15.90;99.90;;;;;;5076243;28;19992;-83
2022/11/24 13:54:49;;;;;;;;;;;15.60;99.90;;;;;;5075775;28;20286;-84
2022/11/24 13:57:34;;;;;;;;;;;15.40;99.90;;;;;;5074965;28;19923;-83
2022/11/24 14:00:00;;;;;;;;;;;15.40;99.90;;;;;;5075119;28;19922;-83
2022/11/24 14:02:26;;;;;;;;;;;15.30;99.90;;;;;;5075272;28;19910;-84
2022/11/24 14:04:51;;;;;;;;;;;15.30;99.90;;;;;;5076728;28;19915;-83
2022/11/24 14:07:17;;;;;;;;;;;15.20;99.90;;;;;;5073631;28;20275;-83
2022/11/24 14:09:43;;;;;;;;;;;15.10;99.90;;;;;;5076166;28;19912;-84
2022/11/24 14:12:13;;;;;;;;;;;14.90;99.90;;;;;;5089057;28;19958;-81
2022/11/24 14:14:39;;;;;;;;;;;14.90;99.90;;;;;;5075063;28;19935;-82
2022/11/24 14:17:21;;;;;;;;;;;14.90;99.90;;;;;;5082311;28;20277;-82
2022/11/24 14:19:48;;;;;;;;;;;14.80;99.90;;;;;;5074024;28;20337;-83
2022/11/24 14:22:16;;;;;;;;;;;14.70;99.90;;;;;;5075397;28;20439;-83
2022/11/24 14:24:43;;;;;;;;;;;14.80;99.90;;;;;;5074202;28;19916;-82
2022/11/24 14:27:16;;;;;;;;;;;14.70;99.90;;;;;;5075729;28;19913;-84
2022/11/24 14:30:08;;;;;;;;;;;14.50;99.90;;;;;;5057084;28;19987;-86
2022/11/24 14:32:33;;;;;;;;;;;14.50;99.90;;;;;;5056644;28;20020;-83